Time,TemperatureF,DewpointF,PressureIn,WindDirection,WindDirectionDegrees,WindSpeedMPH,WindSpeedGustMPH,Humidity,HourlyPrecipIn,Conditions,Clouds,dailyrainin,SoftwareType,DateUTC
2013-02-22 00:03:00,31.7,23.7,29.79,SSE,158,1.8,2.2,72,0.00,,,0.00,WUHU216HW,2013-02-22 07:03:00,
2013-02-22 00:13:00,31.5,23.9,29.79,ENE,68,2.9,2.9,73,0.00,,,0.00,WUHU216HW,2013-02-22 07:13:00,
2013-02-22 00:23:00,31.3,23.7,29.79,WNW,293,0.0,1.3,73,0.00,,,0.00,WUHU216HW,2013-02-22 07:23:00,
2013-02-22 00:33:00,31.1,23.8,29.79,NW,315,1.6,2.5,74,0.00,,,0.00,WUHU216HW,2013-02-22 07:33:00,
2013-02-22 00:43:00,30.6,23.6,29.80,NNE,23,0.4,2.5,75,0.00,,,0.00,WUHU216HW,2013-02-22 07:43:00,
2013-02-22 00:53:00,30.6,23.6,29.79,NNE,23,0.2,0.2,75,0.00,,,0.00,WUHU216HW,2013-02-22 07:53:00,
2013-02-22 01:03:00,30.8,23.8,29.79,SW,225,1.3,1.3,75,0.00,,,0.00,WUHU216HW,2013-02-22 08:03:00,
2013-02-22 01:13:00,30.8,23.8,29.79,NE,45,0.0,0.9,75,0.00,,,0.00,WUHU216HW,2013-02-22 08:13:00,
2013-02-22 01:23:00,31.0,24.3,29.78,South,180,1.3,2.5,76,0.00,,,0.00,WUHU216HW,2013-02-22 08:23:00,
2013-02-22 01:33:00,30.8,24.1,29.78,SSW,203,3.4,3.4,76,0.00,,,0.00,WUHU216HW,2013-02-22 08:33:00,
2013-02-22 01:43:00,30.8,24.1,29.79,SSE,158,3.1,3.6,76,0.00,,,0.00,WUHU216HW,2013-02-22 08:43:00,
2013-02-22 01:54:00,30.8,24.1,29.78,North,0,1.6,2.7,76,0.00,,,0.00,WUHU216HW,2013-02-22 08:54:00,
2013-02-22 02:04:00,30.4,23.8,29.79,NW,315,0.0,1.3,76,0.00,,,0.00,WUHU216HW,2013-02-22 09:04:00,
2013-02-22 02:14:00,30.2,23.6,29.79,ESE,113,0.2,0.9,76,0.00,,,0.00,WUHU216HW,2013-02-22 09:14:00,
2013-02-22 02:24:00,30.2,23.6,29.79,SSW,203,0.0,0.9,76,0.00,,,0.00,WUHU216HW,2013-02-22 09:24:00,
2013-02-22 02:35:00,30.4,24.0,29.79,ESE,113,0.0,1.1,77,0.00,,,0.00,WUHU216HW,2013-02-22 09:35:00,
2013-02-22 02:45:00,30.2,23.9,29.79,West,270,0.0,0.4,77,0.00,,,0.00,WUHU216HW,2013-02-22 09:45:00,
2013-02-22 02:55:00,30.2,23.9,29.79,SE,135,1.3,1.3,77,0.00,,,0.00,WUHU216HW,2013-02-22 09:55:00,
2013-02-22 03:05:00,30.2,23.9,29.79,WSW,248,1.1,1.6,77,0.00,,,0.00,WUHU216HW,2013-02-22 10:05:00,
2013-02-22 03:16:00,30.4,24.0,29.78,SSW,203,2.5,2.7,77,0.00,,,0.00,WUHU216HW,2013-02-22 10:16:00,
2013-02-22 03:26:00,30.6,24.0,29.79,South,180,2.7,5.4,76,0.00,,,0.00,WUHU216HW,2013-02-22 10:26:00,
2013-02-22 03:36:00,30.6,24.0,29.79,SW,225,1.1,2.2,76,0.00,,,0.00,WUHU216HW,2013-02-22 10:36:00,
2013-02-22 03:46:00,30.6,24.2,29.79,ENE,68,0.9,1.6,77,0.00,,,0.00,WUHU216HW,2013-02-22 10:46:00,
2013-02-22 03:56:00,30.4,24.0,29.78,ESE,113,0.9,2.2,77,0.00,,,0.00,WUHU216HW,2013-02-22 10:56:00,
2013-02-22 04:07:00,30.4,24.0,29.78,SE,135,0.9,0.9,77,0.00,,,0.00,WUHU216HW,2013-02-22 11:07:00,
2013-02-22 04:17:00,30.4,24.0,29.78,SE,135,0.0,0.4,77,0.00,,,0.00,WUHU216HW,2013-02-22 11:17:00,
2013-02-22 04:27:00,30.4,24.0,29.78,SE,135,0.0,0.4,77,0.00,,,0.00,WUHU216HW,2013-02-22 11:27:00,
2013-02-22 04:37:00,30.2,23.9,29.78,SSW,203,0.4,1.3,77,0.00,,,0.00,WUHU216HW,2013-02-22 11:37:00,
2013-02-22 04:48:00,30.2,23.9,29.78,WSW,248,1.3,1.6,77,0.00,,,0.00,WUHU216HW,2013-02-22 11:48:00,
2013-02-22 04:58:00,30.2,23.9,29.78,SSW,203,3.8,3.8,77,0.00,,,0.00,WUHU216HW,2013-02-22 11:58:00,
2013-02-22 05:08:00,30.4,23.8,29.78,SW,225,1.8,4.9,76,0.00,,,0.00,WUHU216HW,2013-02-22 12:08:00,
2013-02-22 05:19:00,30.6,24.0,29.78,SSE,158,1.1,2.2,76,0.00,,,0.00,WUHU216HW,2013-02-22 12:19:00,
2013-02-22 05:29:00,30.6,24.0,29.78,SSW,203,1.3,2.5,76,0.00,,,0.00,WUHU216HW,2013-02-22 12:29:00,
2013-02-22 05:39:00,30.6,24.0,29.78,SW,225,1.8,2.7,76,0.00,,,0.00,WUHU216HW,2013-02-22 12:39:00,
2013-02-22 05:49:00,30.4,23.8,29.79,NW,315,0.2,1.1,76,0.00,,,0.00,WUHU216HW,2013-02-22 12:49:00,
2013-02-22 05:59:00,30.2,23.6,29.79,West,270,0.0,0.4,76,0.00,,,0.00,WUHU216HW,2013-02-22 12:59:00,
2013-02-22 06:09:00,30.2,23.6,29.79,SW,225,0.4,0.4,76,0.00,,,0.00,WUHU216HW,2013-02-22 13:09:00,
2013-02-22 06:21:00,30.1,23.4,29.80,North,0,0.0,0.4,76,0.00,,,0.00,WUHU216HW,2013-02-22 13:21:00,
2013-02-22 06:31:00,30.1,23.4,29.79,SSW,203,0.7,0.7,76,0.00,,,0.00,WUHU216HW,2013-02-22 13:31:00,
2013-02-22 06:41:00,29.9,23.2,29.79,South,180,1.1,2.5,76,0.00,,,0.00,WUHU216HW,2013-02-22 13:41:00,
2013-02-22 06:51:00,29.9,23.2,29.79,SSW,203,0.4,1.6,76,0.00,,,0.00,WUHU216HW,2013-02-22 13:51:00,
2013-02-22 07:01:00,29.9,23.2,29.79,SSW,203,1.6,1.6,76,0.00,,,0.00,WUHU216HW,2013-02-22 14:01:00,
2013-02-22 07:11:00,29.9,23.2,29.79,SSW,203,0.7,1.8,76,0.00,,,0.00,WUHU216HW,2013-02-22 14:11:00,
2013-02-22 07:21:00,29.9,23.2,29.78,SSE,158,0.4,2.2,76,0.00,,,0.00,WUHU216HW,2013-02-22 14:21:00,
2013-02-22 07:31:00,29.7,22.7,29.78,WNW,293,0.2,1.8,75,0.00,,,0.00,WUHU216HW,2013-02-22 14:31:00,
2013-02-22 07:41:00,29.7,22.7,29.79,WSW,248,1.1,2.5,75,0.00,,,0.00,WUHU216HW,2013-02-22 14:41:00,
2013-02-22 07:51:00,29.5,22.5,29.79,SSE,158,0.7,3.4,75,0.00,,,0.00,WUHU216HW,2013-02-22 14:51:00,
2013-02-22 08:01:00,29.7,22.7,29.79,SW,225,1.6,2.5,75,0.00,,,0.00,WUHU216HW,2013-02-22 15:01:00,
2013-02-22 08:11:00,29.9,22.9,29.79,WSW,248,0.7,3.6,75,0.00,,,0.00,WUHU216HW,2013-02-22 15:11:00,
2013-02-22 08:21:00,30.2,23.2,29.78,SE,135,1.3,3.6,75,0.00,,,0.00,WUHU216HW,2013-02-22 15:21:00,
2013-02-22 08:32:00,30.6,23.6,29.78,SSW,203,2.0,2.9,75,0.00,,,0.00,WUHU216HW,2013-02-22 15:32:00,
2013-02-22 08:42:00,31.0,23.9,29.77,SSE,158,3.1,3.1,75,0.00,,,0.00,WUHU216HW,2013-02-22 15:42:00,
2013-02-22 08:52:00,31.5,24.1,29.76,West,270,1.6,2.5,74,0.00,,,0.00,WUHU216HW,2013-02-22 15:52:00,
2013-02-22 09:02:00,31.9,24.2,29.77,SSE,158,0.4,3.4,73,0.00,,,0.00,WUHU216HW,2013-02-22 16:02:00,
2013-02-22 09:12:00,32.2,24.6,29.77,SSW,203,1.6,3.4,73,0.00,,,0.00,WUHU216HW,2013-02-22 16:12:00,
2013-02-22 09:22:00,32.8,24.7,29.77,WSW,248,2.5,4.5,72,0.00,,,0.00,WUHU216HW,2013-02-22 16:22:00,
2013-02-22 09:32:00,33.5,25.0,29.77,SSW,203,2.7,5.1,71,0.00,,,0.00,WUHU216HW,2013-02-22 16:32:00,
2013-02-22 09:42:00,34.2,25.4,29.77,ESE,113,2.7,6.3,70,0.00,,,0.00,WUHU216HW,2013-02-22 16:42:00,
2013-02-22 09:52:00,34.7,25.9,29.77,SSE,158,4.5,7.6,70,0.00,,,0.00,WUHU216HW,2013-02-22 16:52:00,
2013-02-22 10:02:00,35.5,25.9,29.76,ESE,113,6.5,6.5,68,0.00,,,0.00,WUHU216HW,2013-02-22 17:02:00,
2013-02-22 10:12:00,35.8,25.9,29.76,SSW,203,6.3,8.5,67,0.00,,,0.00,WUHU216HW,2013-02-22 17:12:00,
2013-02-22 10:22:00,36.4,26.5,29.76,SSE,158,2.5,7.4,67,0.00,,,0.00,WUHU216HW,2013-02-22 17:22:00,
2013-02-22 10:32:00,37.1,26.4,29.76,SSE,158,7.2,9.8,65,0.00,,,0.00,WUHU216HW,2013-02-22 17:32:00,
2013-02-22 10:42:00,37.1,26.4,29.75,SSE,158,7.4,7.8,65,0.00,,,0.00,WUHU216HW,2013-02-22 17:42:00,
2013-02-22 10:52:00,37.6,26.6,29.75,South,180,6.5,7.6,64,0.00,,,0.00,WUHU216HW,2013-02-22 17:52:00,
2013-02-22 11:02:00,38.0,26.5,29.74,SW,225,4.0,9.2,63,0.00,,,0.00,WUHU216HW,2013-02-22 18:02:00,
2013-02-22 11:13:00,38.7,27.1,29.74,South,180,4.9,8.5,63,0.00,,,0.00,WUHU216HW,2013-02-22 18:13:00,
2013-02-22 11:23:00,39.6,27.5,29.74,South,180,5.1,7.8,62,0.00,,,0.00,WUHU216HW,2013-02-22 18:23:00,
2013-02-22 11:34:00,40.7,28.3,29.74,SSW,203,5.8,7.6,61,0.00,,,0.00,WUHU216HW,2013-02-22 18:34:00,
2013-02-22 11:44:00,41.2,28.0,29.74,SW,225,4.7,6.7,59,0.00,,,0.00,WUHU216HW,2013-02-22 18:44:00,
2013-02-22 11:54:00,41.0,25.6,29.73,SSW,203,9.8,17.7,54,0.00,,,0.00,WUHU216HW,2013-02-22 18:54:00,
2013-02-22 12:04:00,40.9,24.5,29.74,WSW,248,11.4,20.6,52,0.00,,,0.00,WUHU216HW,2013-02-22 19:04:00,
2013-02-22 12:14:00,40.9,24.5,29.73,WSW,248,13.4,13.4,52,0.00,,,0.00,WUHU216HW,2013-02-22 19:14:00,
2013-02-22 12:24:00,40.7,24.3,29.73,WSW,248,4.7,14.8,52,0.00,,,0.00,WUHU216HW,2013-02-22 19:24:00,
2013-02-22 12:34:00,40.7,24.3,29.72,SW,225,12.5,12.5,52,0.00,,,0.00,WUHU216HW,2013-02-22 19:34:00,
2013-02-22 12:45:00,41.0,23.8,29.71,SW,225,14.3,14.3,50,0.00,,,0.00,WUHU216HW,2013-02-22 19:45:00,
2013-02-22 12:57:00,41.4,25.0,29.71,WSW,248,3.4,13.9,52,0.00,,,0.00,WUHU216HW,2013-02-22 19:57:00,
2013-02-22 13:07:00,41.6,24.8,29.69,West,270,9.2,9.4,51,0.00,,,0.00,WUHU216HW,2013-02-22 20:07:00,
2013-02-22 13:18:00,42.5,25.7,29.69,West,270,7.8,15.4,51,0.00,,,0.00,WUHU216HW,2013-02-22 20:18:00,
2013-02-22 13:31:00,43.0,25.8,29.69,SW,225,8.7,10.1,50,0.00,,,0.00,WUHU216HW,2013-02-22 20:31:00,
2013-02-22 13:41:00,43.6,26.2,29.68,SW,225,7.6,7.6,50,0.00,,,0.00,WUHU216HW,2013-02-22 20:41:00,
2013-02-22 13:51:00,43.7,26.8,29.68,SW,225,1.1,5.8,51,0.00,,,0.00,WUHU216HW,2013-02-22 20:51:00,
2013-02-22 14:01:00,43.6,26.2,29.67,WSW,248,5.1,6.9,50,0.00,,,0.00,WUHU216HW,2013-02-22 21:01:00,
2013-02-22 14:11:00,43.4,26.0,29.66,SW,225,3.4,7.4,50,0.00,,,0.00,WUHU216HW,2013-02-22 21:11:00,
2013-02-22 14:21:00,43.4,26.0,29.65,SW,225,3.4,4.9,50,0.00,,,0.00,WUHU216HW,2013-02-22 21:21:00,
2013-02-22 14:31:00,43.4,26.0,29.65,WSW,248,3.6,5.4,50,0.00,,,0.00,WUHU216HW,2013-02-22 21:31:00,
2013-02-22 14:41:00,43.6,26.2,29.64,SW,225,4.0,5.1,50,0.00,,,0.00,WUHU216HW,2013-02-22 21:41:00,
2013-02-22 14:51:00,43.9,26.6,29.64,SSW,203,2.5,6.3,50,0.00,,,0.00,WUHU216HW,2013-02-22 21:51:00,
2013-02-22 15:01:00,43.6,26.2,29.63,WSW,248,4.5,6.5,50,0.00,,,0.00,WUHU216HW,2013-02-22 22:01:00,
2013-02-22 15:12:00,43.4,26.0,29.63,South,180,4.0,6.3,50,0.00,,,0.00,WUHU216HW,2013-02-22 22:12:00,
2013-02-22 15:22:00,43.7,26.4,29.62,WSW,248,5.4,8.7,50,0.00,,,0.00,WUHU216HW,2013-02-22 22:22:00,
2013-02-22 15:32:00,43.9,26.6,29.62,SW,225,5.4,5.4,50,0.00,,,0.00,WUHU216HW,2013-02-22 22:32:00,
2013-02-22 15:42:00,44.1,26.2,29.62,SW,225,0.4,4.3,49,0.00,,,0.00,WUHU216HW,2013-02-22 22:42:00,
2013-02-22 15:52:00,44.3,26.3,29.62,SSW,203,4.7,4.7,49,0.00,,,0.00,WUHU216HW,2013-02-22 22:52:00,
2013-02-22 16:02:00,44.3,26.3,29.62,South,180,4.7,5.1,49,0.00,,,0.00,WUHU216HW,2013-02-22 23:02:00,
2013-02-22 16:12:00,44.1,26.2,29.61,SW,225,5.6,7.8,49,0.00,,,0.00,WUHU216HW,2013-02-22 23:12:00,
2013-02-22 16:22:00,44.1,26.2,29.60,South,180,6.5,7.6,49,0.00,,,0.00,WUHU216HW,2013-02-22 23:22:00,
2013-02-22 16:33:00,43.9,26.0,29.59,South,180,2.7,10.7,49,0.00,,,0.00,WUHU216HW,2013-02-22 23:33:00,
2013-02-22 16:43:00,43.6,26.2,29.59,SSE,158,4.9,7.6,50,0.00,,,0.00,WUHU216HW,2013-02-22 23:43:00,
2013-02-22 16:53:00,43.6,26.2,29.58,South,180,9.8,9.8,50,0.00,,,0.00,WUHU216HW,2013-02-22 23:53:00,
2013-02-22 17:03:00,43.2,25.9,29.58,South,180,4.7,9.6,50,0.00,,,0.00,WUHU216HW,2013-02-23 00:03:00,
2013-02-22 17:13:00,42.8,26.0,29.58,ESE,113,6.9,6.9,51,0.00,,,0.00,WUHU216HW,2013-02-23 00:13:00,
2013-02-22 17:23:00,42.5,25.7,29.58,SSW,203,4.9,8.7,51,0.00,,,0.00,WUHU216HW,2013-02-23 00:23:00,
2013-02-22 17:34:00,42.3,25.5,29.58,South,180,3.4,5.4,51,0.00,,,0.00,WUHU216HW,2013-02-23 00:34:00,
2013-02-22 17:44:00,42.1,25.3,29.58,West,270,1.1,4.7,51,0.00,,,0.00,WUHU216HW,2013-02-23 00:44:00,
2013-02-22 17:54:00,41.9,25.6,29.57,SW,225,0.7,3.6,52,0.00,,,0.00,WUHU216HW,2013-02-23 00:54:00,
2013-02-22 18:05:00,41.6,25.2,29.57,SSE,158,1.6,4.3,52,0.00,,,0.00,WUHU216HW,2013-02-23 01:05:00,
2013-02-22 18:15:00,41.4,25.0,29.56,SE,135,2.0,6.3,52,0.00,,,0.00,WUHU216HW,2013-02-23 01:15:00,
2013-02-22 18:25:00,41.4,25.5,29.56,SSE,158,2.5,5.6,53,0.00,,,0.00,WUHU216HW,2013-02-23 01:25:00,
2013-02-22 18:35:00,41.2,25.3,29.56,SE,135,0.7,3.4,53,0.00,,,0.00,WUHU216HW,2013-02-23 01:35:00,
2013-02-22 18:45:00,41.0,25.1,29.56,South,180,4.7,4.7,53,0.00,,,0.00,WUHU216HW,2013-02-23 01:45:00,
2013-02-22 18:56:00,40.9,25.4,29.56,SSE,158,0.9,1.8,54,0.00,,,0.00,WUHU216HW,2013-02-23 01:56:00,
2013-02-22 19:06:00,40.7,25.2,29.56,SSW,203,0.0,6.0,54,0.00,,,0.00,WUHU216HW,2013-02-23 02:06:00,
2013-02-22 19:16:00,40.7,25.7,29.56,SW,225,0.0,2.5,55,0.00,,,0.00,WUHU216HW,2013-02-23 02:16:00,
2013-02-22 19:26:00,40.7,25.7,29.55,SSW,203,1.1,1.8,55,0.00,,,0.00,WUHU216HW,2013-02-23 02:26:00,
2013-02-22 19:36:00,40.5,25.5,29.55,ESE,113,4.5,4.7,55,0.00,,,0.00,WUHU216HW,2013-02-23 02:36:00,
2013-02-22 19:46:00,40.5,25.9,29.55,SE,135,0.7,2.7,56,0.00,,,0.00,WUHU216HW,2013-02-23 02:46:00,
2013-02-22 19:56:00,40.3,25.7,29.55,SSE,158,5.1,5.1,56,0.00,,,0.00,WUHU216HW,2013-02-23 02:56:00,
2013-02-22 20:06:00,40.3,26.2,29.54,SSW,203,0.9,9.8,57,0.00,,,0.00,WUHU216HW,2013-02-23 03:06:00,
2013-02-22 20:16:00,40.1,26.5,29.54,SSW,203,7.4,7.4,58,0.00,,,0.00,WUHU216HW,2013-02-23 03:16:00,
2013-02-22 20:26:00,40.0,26.7,29.53,SSE,158,5.1,6.9,59,0.00,,,0.00,WUHU216HW,2013-02-23 03:26:00,
2013-02-22 20:37:00,40.0,27.2,29.54,SSW,203,4.5,7.6,60,0.00,,,0.00,WUHU216HW,2013-02-23 03:37:00,
2013-02-22 20:47:00,40.0,27.2,29.53,SSW,203,1.8,6.0,60,0.00,,,0.00,WUHU216HW,2013-02-23 03:47:00,
2013-02-22 20:57:00,39.8,27.4,29.53,SE,135,2.5,2.7,61,0.00,,,0.00,WUHU216HW,2013-02-23 03:57:00,
2013-02-22 21:07:00,39.6,28.0,29.53,SSE,158,2.5,8.3,63,0.00,,,0.00,WUHU216HW,2013-02-23 04:07:00,
2013-02-22 21:17:00,39.4,27.8,29.53,SSW,203,1.6,7.2,63,0.00,,,0.00,WUHU216HW,2013-02-23 04:17:00,
2013-02-22 21:28:00,39.2,28.0,29.53,SSE,158,0.2,7.4,64,0.00,,,0.00,WUHU216HW,2013-02-23 04:28:00,
2013-02-22 21:38:00,39.1,28.2,29.52,SSE,158,5.8,7.6,65,0.00,,,0.00,WUHU216HW,2013-02-23 04:38:00,
2013-02-22 21:48:00,38.9,27.6,29.52,SSW,203,3.4,5.6,64,0.00,,,0.00,WUHU216HW,2013-02-23 04:48:00,
2013-02-22 21:58:00,38.9,28.5,29.51,South,180,8.7,9.6,66,0.00,,,0.00,WUHU216HW,2013-02-23 04:58:00,
2013-02-22 22:08:00,38.9,28.5,29.52,South,180,6.0,10.5,66,0.00,,,0.00,WUHU216HW,2013-02-23 05:08:00,
2013-02-22 22:18:00,38.7,28.3,29.51,SW,225,3.1,7.4,66,0.00,,,0.00,WUHU216HW,2013-02-23 05:18:00,
2013-02-22 22:29:00,38.7,28.3,29.50,SSW,203,2.9,6.3,66,0.00,,,0.00,WUHU216HW,2013-02-23 05:29:00,
2013-02-22 22:39:00,38.5,28.1,29.50,SE,135,7.4,8.1,66,0.00,,,0.00,WUHU216HW,2013-02-23 05:39:00,
2013-02-22 22:49:00,38.5,28.4,29.49,South,180,2.5,8.5,67,0.00,,,0.00,WUHU216HW,2013-02-23 05:49:00,
2013-02-22 22:59:00,38.5,28.4,29.49,SE,135,3.4,8.7,67,0.00,,,0.00,WUHU216HW,2013-02-23 05:59:00,
2013-02-22 23:10:00,38.5,28.4,29.49,SE,135,3.6,6.9,67,0.00,,,0.00,WUHU216HW,2013-02-23 06:10:00,
2013-02-22 23:20:00,38.5,28.4,29.50,South,180,2.5,5.1,67,0.00,,,0.00,WUHU216HW,2013-02-23 06:20:00,
2013-02-22 23:30:00,38.5,28.8,29.50,SSE,158,4.0,8.9,68,0.00,,,0.00,WUHU216HW,2013-02-23 06:30:00,
2013-02-22 23:40:00,38.5,28.4,29.49,SSE,158,3.8,5.6,67,0.00,,,0.00,WUHU216HW,2013-02-23 06:40:00,
2013-02-22 23:51:00,38.5,28.4,29.49,East,90,4.0,4.9,67,0.00,,,0.00,WUHU216HW,2013-02-23 06:51:00,